sensor_id;sensor_type;location;lat;lon;timestamp;pressure;altitude;pressure_sealevel;temperature;humidity
42519;BME280;28147;47.520;18.920;2022-09-27T00:00:37;97281.25;;;14.68;100.00
42519;BME280;28147;47.520;18.920;2022-09-27T00:03:03;97276.75;;;14.64;100.00
42519;BME280;28147;47.520;18.920;2022-09-27T00:05:29;97273.53;;;14.67;100.00
42519;BME280;28147;47.520;18.920;2022-09-27T00:07:55;97264.88;;;14.51;100.00
42519;BME280;28147;47.520;18.920;2022-09-27T00:10:20;97268.63;;;14.50;100.00
42519;BME280;28147;47.520;18.920;2022-09-27T00:12:46;97271.13;;;14.41;100.00
42519;BME280;28147;47.520;18.920;2022-09-27T00:15:12;97269.88;;;14.33;100.00
42519;BME280;28147;47.520;18.920;2022-09-27T00:17:37;97267.81;;;14.25;100.00
42519;BME280;28147;47.520;18.920;2022-09-27T00:20:05;97267.81;;;14.25;100.00
42519;BME280;28147;47.520;18.920;2022-09-27T00:22:31;97260.97;;;14.14;100.00
42519;BME280;28147;47.520;18.920;2022-09-27T00:24:56;97255.84;;;14.18;100.00
42519;BME280;28147;47.520;18.920;2022-09-27T00:27:23;97251.19;;;14.28;100.00
42519;BME280;28147;47.520;18.920;2022-09-27T00:29:49;97255.38;;;14.34;100.00
42519;BME280;28147;47.520;18.920;2022-09-27T00:32:14;97249.34;;;14.48;100.00
42519;BME280;28147;47.520;18.920;2022-09-27T00:34:40;97252.00;;;14.53;100.00
42519;BME280;28147;47.520;18.920;2022-09-27T00:37:07;97245.19;;;14.36;100.00
42519;BME280;28147;47.520;18.920;2022-09-27T00:39:32;97252.03;;;14.24;100.00
42519;BME280;28147;47.520;18.920;2022-09-27T00:41:58;97249.19;;;14.15;100.00
42519;BME280;28147;47.520;18.920;2022-09-27T00:49:37;97235.50;;;14.41;100.00
42519;BME280;28147;47.520;18.920;2022-09-27T00:52:08;97228.28;;;14.41;100.00
42519;BME280;28147;47.520;18.920;2022-09-27T00:54:38;97222.81;;;14.27;100.00
42519;BME280;28147;47.520;18.920;2022-09-27T00:57:05;97225.44;;;14.32;100.00
42519;BME280;28147;47.520;18.920;2022-09-27T00:59:37;97231.81;;;14.36;100.00
42519;BME280;28147;47.520;18.920;2022-09-27T01:02:04;97237.84;;;14.23;100.00
42519;BME280;28147;47.520;18.920;2022-09-27T01:04:32;97237.66;;;14.39;100.00
42519;BME280;28147;47.520;18.920;2022-09-27T01:06:59;97227.47;;;14.17;100.00
42519;BME280;28147;47.520;18.920;2022-09-27T01:09:25;97233.44;;;14.14;100.00
42519;BME280;28147;47.520;18.920;2022-09-27T01:12:12;97236.19;;;14.27;100.00
42519;BME280;28147;47.520;18.920;2022-09-27T01:47:06;97167.56;;;14.12;100.00
42519;BME280;28147;47.520;18.920;2022-09-27T01:49:44;97168.22;;;14.28;100.00
42519;BME280;28147;47.520;18.920;2022-09-27T01:52:16;97163.47;;;14.20;100.00
42519;BME280;28147;47.520;18.920;2022-09-27T01:54:49;97155.97;;;14.22;100.00
42519;BME280;28147;47.520;18.920;2022-09-27T01:57:21;97154.38;;;14.21;100.00
42519;BME280;28147;47.520;18.920;2022-09-27T01:59:55;97156.47;;;14.24;100.00
42519;BME280;28147;47.520;18.920;2022-09-27T02:02:24;97163.19;;;13.98;100.00
42519;BME280;28147;47.520;18.920;2022-09-27T02:04:55;97152.47;;;14.03;100.00
42519;BME280;28147;47.520;18.920;2022-09-27T02:07:45;97159.75;;;13.73;100.00
42519;BME280;28147;47.520;18.920;2022-09-27T02:10:20;97155.25;;;13.69;100.00
42519;BME280;28147;47.520;18.920;2022-09-27T02:15:39;97168.00;;;13.53;100.00
42519;BME280;28147;47.520;18.920;2022-09-27T02:18:20;97172.47;;;13.28;100.00
42519;BME280;28147;47.520;18.920;2022-09-27T02:20:53;97166.91;;;13.20;100.00
42519;BME280;28147;47.520;18.920;2022-09-27T02:23:33;97170.91;;;13.27;100.00
42519;BME280;28147;47.520;18.920;2022-09-27T02:26:24;97167.38;;;13.32;100.00
42519;BME280;28147;47.520;18.920;2022-09-27T02:29:06;97161.75;;;13.33;100.00
42519;BME280;28147;47.520;18.920;2022-09-27T02:31:32;97158.31;;;13.28;100.00
42519;BME280;28147;47.520;18.920;2022-09-27T02:34:13;97152.53;;;13.15;100.00
42519;BME280;28147;47.520;18.920;2022-09-27T02:36:40;97150.13;;;13.14;100.00
42519;BME280;28147;47.520;18.920;2022-09-27T02:39:06;97145.00;;;13.18;100.00
42519;BME280;28147;47.520;18.920;2022-09-27T02:41:31;97145.91;;;13.08;100.00
42519;BME280;28147;47.520;18.920;2022-09-27T02:44:04;97150.84;;;12.90;100.00
42519;BME280;28147;47.520;18.920;2022-09-27T02:49:03;97141.81;;;12.86;100.00
42519;BME280;28147;47.520;18.920;2022-09-27T02:51:46;97136.41;;;12.91;100.00
42519;BME280;28147;47.520;18.920;2022-09-27T02:55:03;97137.41;;;13.01;100.00
42519;BME280;28147;47.520;18.920;2022-09-27T03:00:12;97126.22;;;12.99;100.00
42519;BME280;28147;47.520;18.920;2022-09-27T03:02:58;97132.09;;;13.01;100.00
42519;BME280;28147;47.520;18.920;2022-09-27T03:05:29;97130.34;;;13.15;100.00
42519;BME280;28147;47.520;18.920;2022-09-27T03:07:56;97134.16;;;13.09;100.00
42519;BME280;28147;47.520;18.920;2022-09-27T03:10:25;97125.72;;;12.91;100.00
42519;BME280;28147;47.520;18.920;2022-09-27T03:12:51;97126.25;;;12.94;100.00
42519;BME280;28147;47.520;18.920;2022-09-27T03:15:18;97124.44;;;12.89;100.00
42519;BME280;28147;47.520;18.920;2022-09-27T03:17:44;97126.25;;;12.94;100.00
42519;BME280;28147;47.520;18.920;2022-09-27T03:20:10;97118.06;;;12.85;100.00
42519;BME280;28147;47.520;18.920;2022-09-27T03:22:35;97111.81;;;12.95;100.00
42519;BME280;28147;47.520;18.920;2022-09-27T03:25:03;97106.34;;;12.81;100.00
42519;BME280;28147;47.520;18.920;2022-09-27T03:27:28;97111.81;;;12.95;100.00
42519;BME280;28147;47.520;18.920;2022-09-27T03:29:54;97115.03;;;12.91;100.00
42519;BME280;28147;47.520;18.920;2022-09-27T03:32:19;97116.41;;;13.18;100.00
42519;BME280;28147;47.520;18.920;2022-09-27T03:34:45;97115.38;;;13.14;100.00
42519;BME280;28147;47.520;18.920;2022-09-27T03:37:10;97108.53;;;13.03;100.00
42519;BME280;28147;47.520;18.920;2022-09-27T03:39:35;97112.59;;;13.00;100.00
42519;BME280;28147;47.520;18.920;2022-09-27T03:42:01;97109.13;;;13.00;100.00
42519;BME280;28147;47.520;18.920;2022-09-27T03:44:27;97100.03;;;13.01;100.00
42519;BME280;28147;47.520;18.920;2022-09-27T03:46:52;97101.13;;;12.95;100.00
42519;BME280;28147;47.520;18.920;2022-09-27T03:49:17;97102.97;;;12.99;100.00
42519;BME280;28147;47.520;18.920;2022-09-27T03:51:43;97094.13;;;13.04;100.00
42519;BME280;28147;47.520;18.920;2022-09-27T03:54:09;97095.91;;;12.84;100.00
42519;BME280;28147;47.520;18.920;2022-09-27T03:56:34;97085.72;;;12.86;100.00
42519;BME280;28147;47.520;18.920;2022-09-27T03:59:00;97102.25;;;13.18;100.00
42519;BME280;28147;47.520;18.920;2022-09-27T04:01:26;97099.25;;;12.95;100.00
42519;BME280;28147;47.520;18.920;2022-09-27T04:03:52;97109.56;;;12.78;100.00
42519;BME280;28147;47.520;18.920;2022-09-27T04:06:17;97109.38;;;12.69;100.00
42519;BME280;28147;47.520;18.920;2022-09-27T04:08:44;97106.13;;;12.72;100.00
42519;BME280;28147;47.520;18.920;2022-09-27T04:11:10;97108.78;;;12.72;100.00
42519;BME280;28147;47.520;18.920;2022-09-27T04:13:35;97097.91;;;12.63;100.00
42519;BME280;28147;47.520;18.920;2022-09-27T04:16:01;97103.44;;;12.72;100.00
42519;BME280;28147;47.520;18.920;2022-09-27T04:18:27;97100.88;;;12.62;100.00
42519;BME280;28147;47.520;18.920;2022-09-27T04:20:53;97092.34;;;12.60;100.00
42519;BME280;28147;47.520;18.920;2022-09-27T04:23:18;97087.78;;;12.65;100.00
42519;BME280;28147;47.520;18.920;2022-09-27T04:25:45;97085.38;;;12.64;100.00
42519;BME280;28147;47.520;18.920;2022-09-27T04:28:10;97085.66;;;12.62;100.00
42519;BME280;28147;47.520;18.920;2022-09-27T04:30:37;97091.78;;;12.63;100.00
42519;BME280;28147;47.520;18.920;2022-09-27T04:33:02;97076.44;;;12.79;100.00
42519;BME280;28147;47.520;18.920;2022-09-27T04:35:28;97078.38;;;12.73;100.00
42519;BME280;28147;47.520;18.920;2022-09-27T04:38:12;97076.34;;;12.89;100.00
42519;BME280;28147;47.520;18.920;2022-09-27T04:40:39;97081.28;;;12.72;100.00
42519;BME280;28147;47.520;18.920;2022-09-27T04:43:05;97074.09;;;12.72;100.00
42519;BME280;28147;47.520;18.920;2022-09-27T04:45:30;97080.22;;;12.73;100.00
42519;BME280;28147;47.520;18.920;2022-09-27T04:47:56;97065.03;;;12.68;100.00
42519;BME280;28147;47.520;18.920;2022-09-27T04:50:21;97069.28;;;12.74;100.00
42519;BME280;28147;47.520;18.920;2022-09-27T04:52:51;97073.56;;;12.70;100.00
42519;BME280;28147;47.520;18.920;2022-09-27T04:55:17;97068.25;;;12.65;100.00
42519;BME280;28147;47.520;18.920;2022-09-27T04:57:43;97069.34;;;12.64;100.00
42519;BME280;28147;47.520;18.920;2022-09-27T05:00:08;97070.22;;;12.88;100.00
42519;BME280;28147;47.520;18.920;2022-09-27T05:02:34;97064.69;;;13.09;100.00
42519;BME280;28147;47.520;18.920;2022-09-27T05:04:59;97062.88;;;12.99;100.00
42519;BME280;28147;47.520;18.920;2022-09-27T05:07:26;97057.03;;;12.97;100.00
42519;BME280;28147;47.520;18.920;2022-09-27T05:09:51;97064.13;;;13.12;100.00
42519;BME280;28147;47.520;18.920;2022-09-27T05:12:17;97054.47;;;13.16;100.00
42519;BME280;28147;47.520;18.920;2022-09-27T05:14:43;97052.34;;;13.42;100.00
42519;BME280;28147;47.520;18.920;2022-09-27T05:17:09;97056.31;;;13.45;100.00
42519;BME280;28147;47.520;18.920;2022-09-27T05:19:35;97052.88;;;13.63;100.00
42519;BME280;28147;47.520;18.920;2022-09-27T05:22:06;97056.66;;;13.62;100.00
42519;BME280;28147;47.520;18.920;2022-09-27T05:24:32;97052.88;;;13.63;100.00
42519;BME280;28147;47.520;18.920;2022-09-27T05:26:59;97041.47;;;13.57;100.00
42519;BME280;28147;47.520;18.920;2022-09-27T05:29:25;97048.88;;;13.84;100.00
42519;BME280;28147;47.520;18.920;2022-09-27T05:31:51;97036.53;;;14.07;100.00
42519;BME280;28147;47.520;18.920;2022-09-27T05:34:16;97035.44;;;14.08;100.00
42519;BME280;28147;47.520;18.920;2022-09-27T05:36:46;97029.72;;;14.34;100.00
42519;BME280;28147;47.520;18.920;2022-09-27T05:39:12;97033.81;;;14.45;100.00
42519;BME280;28147;47.520;18.920;2022-09-27T05:41:37;97025.94;;;14.54;100.00
42519;BME280;28147;47.520;18.920;2022-09-27T05:44:04;97022.59;;;14.62;100.00
42519;BME280;28147;47.520;18.920;2022-09-27T05:46:30;97016.75;;;14.60;100.00
42519;BME280;28147;47.520;18.920;2022-09-27T05:48:55;97022.91;;;14.60;100.00
42519;BME280;28147;47.520;18.920;2022-09-27T05:51:20;97015.28;;;14.68;100.00
42519;BME280;28147;47.520;18.920;2022-09-27T05:53:47;97013.69;;;14.67;100.00
42519;BME280;28147;47.520;18.920;2022-09-27T05:56:13;97020.06;;;14.71;100.00
42519;BME280;28147;47.520;18.920;2022-09-27T05:58:38;97026.16;;;14.90;100.00
42519;BME280;28147;47.520;18.920;2022-09-27T06:01:07;97034.81;;;15.01;98.79
42519;BME280;28147;47.520;18.920;2022-09-27T06:03:33;97029.22;;;14.83;99.63
42519;BME280;28147;47.520;18.920;2022-09-27T06:06:02;97026.19;;;15.04;99.18
42519;BME280;28147;47.520;18.920;2022-09-27T06:08:34;97026.56;;;15.11;100.00
42519;BME280;28147;47.520;18.920;2022-09-27T06:11:02;97022.53;;;15.27;99.45
42519;BME280;28147;47.520;18.920;2022-09-27T06:13:30;97027.38;;;15.53;98.70
42519;BME280;28147;47.520;18.920;2022-09-27T06:15:57;97027.00;;;15.46;97.58
42519;BME280;28147;47.520;18.920;2022-09-27T06:18:23;97035.72;;;14.45;100.00
42519;BME280;28147;47.520;18.920;2022-09-27T06:20:48;97035.81;;;14.40;100.00
42519;BME280;28147;47.520;18.920;2022-09-27T06:23:16;97036.00;;;14.24;100.00
42519;BME280;28147;47.520;18.920;2022-09-27T06:25:43;97040.94;;;14.36;100.00
42519;BME280;28147;47.520;18.920;2022-09-27T06:28:09;97038.19;;;14.41;100.00
42519;BME280;28147;47.520;18.920;2022-09-27T06:30:40;97043.28;;;14.75;100.00
42519;BME280;28147;47.520;18.920;2022-09-27T06:33:06;97036.69;;;15.00;100.00
42519;BME280;28147;47.520;18.920;2022-09-27T06:35:34;97038.09;;;15.25;98.79
42519;BME280;28147;47.520;18.920;2022-09-27T06:38:11;97032.03;;;15.33;97.70
42519;BME280;28147;47.520;18.920;2022-09-27T06:40:37;97029.66;;;15.32;98.59
42519;BME280;28147;47.520;18.920;2022-09-27T06:43:07;97027.88;;;15.41;99.07
42519;BME280;28147;47.520;18.920;2022-09-27T06:45:34;97021.53;;;15.51;97.59
42519;BME280;28147;47.520;18.920;2022-09-27T06:48:10;97011.59;;;15.38;99.43
42519;BME280;28147;47.520;18.920;2022-09-27T06:50:38;97012.97;;;15.21;100.00
42519;BME280;28147;47.520;18.920;2022-09-27T06:53:05;97013.09;;;15.44;100.00
42519;BME280;28147;47.520;18.920;2022-09-27T06:55:31;97020.34;;;15.57;99.70
42519;BME280;28147;47.520;18.920;2022-09-27T06:57:58;97014.88;;;15.48;100.00
42519;BME280;28147;47.520;18.920;2022-09-27T07:00:42;97035.16;;;15.27;99.19
42519;BME280;28147;47.520;18.920;2022-09-27T07:03:09;97038.19;;;15.34;98.73
42519;BME280;28147;47.520;18.920;2022-09-27T07:05:39;97041.28;;;15.14;99.55
42519;BME280;28147;47.520;18.920;2022-09-27T07:08:09;97038.97;;;15.07;100.00
42519;BME280;28147;47.520;18.920;2022-09-27T07:10:37;97042.78;;;15.20;100.00
42519;BME280;28147;47.520;18.920;2022-09-27T07:13:04;97039.59;;;15.18;100.00
42519;BME280;28147;47.520;18.920;2022-09-27T07:15:30;97043.75;;;15.10;100.00
42519;BME280;28147;47.520;18.920;2022-09-27T07:18:00;97046.81;;;14.90;100.00
42519;BME280;28147;47.520;18.920;2022-09-27T07:20:26;97035.03;;;14.72;100.00
42519;BME280;28147;47.520;18.920;2022-09-27T07:22:51;97048.00;;;15.11;98.30
42519;BME280;28147;47.520;18.920;2022-09-27T07:25:18;97039.47;;;15.64;96.20
42519;BME280;28147;47.520;18.920;2022-09-27T07:27:43;97033.53;;;15.26;97.39
42519;BME280;28147;47.520;18.920;2022-09-27T07:30:10;97035.72;;;15.38;96.02
42519;BME280;28147;47.520;18.920;2022-09-27T07:32:36;97052.72;;;15.19;97.82
42519;BME280;28147;47.520;18.920;2022-09-27T07:35:03;97050.81;;;15.33;97.27
42519;BME280;28147;47.520;18.920;2022-09-27T07:37:36;97046.97;;;15.53;96.74
42519;BME280;28147;47.520;18.920;2022-09-27T07:40:05;97045.34;;;15.25;97.04
42519;BME280;28147;47.520;18.920;2022-09-27T07:42:32;97037.94;;;15.49;96.41
42519;BME280;28147;47.520;18.920;2022-09-27T07:44:58;97040.31;;;15.65;96.28
42519;BME280;28147;47.520;18.920;2022-09-27T07:47:41;97041.78;;;16.21;92.79
42519;BME280;28147;47.520;18.920;2022-09-27T07:50:08;97034.31;;;16.54;90.06
42519;BME280;28147;47.520;18.920;2022-09-27T07:52:42;97034.25;;;16.68;88.11
42519;BME280;28147;47.520;18.920;2022-09-27T07:55:09;97030.06;;;16.75;87.35
42519;BME280;28147;47.520;18.920;2022-09-27T07:57:35;97032.53;;;16.27;88.99
42519;BME280;28147;47.520;18.920;2022-09-27T08:00:05;97038.25;;;16.48;88.72
42519;BME280;28147;47.520;18.920;2022-09-27T08:02:31;97023.16;;;17.14;84.22
42519;BME280;28147;47.520;18.920;2022-09-27T08:04:58;97022.03;;;17.15;83.84
42519;BME280;28147;47.520;18.920;2022-09-27T08:07:24;97014.78;;;17.64;81.37
42519;BME280;28147;47.520;18.920;2022-09-27T08:09:49;97003.50;;;17.45;83.25
42519;BME280;28147;47.520;18.920;2022-09-27T08:12:15;97016.97;;;17.54;82.14
42519;BME280;28147;47.520;18.920;2022-09-27T08:14:41;97023.16;;;16.61;86.19
42519;BME280;28147;47.520;18.920;2022-09-27T08:17:09;97027.66;;;16.29;88.16
42519;BME280;28147;47.520;18.920;2022-09-27T08:19:35;97034.53;;;15.99;90.37
42519;BME280;28147;47.520;18.920;2022-09-27T08:22:01;97035.72;;;15.51;93.48
42519;BME280;28147;47.520;18.920;2022-09-27T08:24:26;97039.81;;;15.35;94.86
42519;BME280;28147;47.520;18.920;2022-09-27T08:26:52;97036.69;;;15.14;96.22
42519;BME280;28147;47.520;18.920;2022-09-27T08:29:17;97035.09;;;14.86;99.40
42519;BME280;28147;47.520;18.920;2022-09-27T08:31:43;97034.19;;;14.90;99.30
42519;BME280;28147;47.520;18.920;2022-09-27T08:34:08;97032.53;;;15.08;99.10
42519;BME280;28147;47.520;18.920;2022-09-27T08:36:34;97030.81;;;14.98;99.90
42519;BME280;28147;47.520;18.920;2022-09-27T08:39:02;97034.88;;;14.82;100.00
42519;BME280;28147;47.520;18.920;2022-09-27T08:41:35;97028.47;;;15.11;100.00
42519;BME280;28147;47.520;18.920;2022-09-27T08:47:16;97023.63;;;15.68;97.94
42519;BME280;28147;47.520;18.920;2022-09-27T08:50:28;97019.84;;;15.55;97.74
42519;BME280;28147;47.520;18.920;2022-09-27T08:52:42;97030.66;;;15.36;100.00
42519;BME280;28147;47.520;18.920;2022-09-27T08:55:20;97030.84;;;15.12;100.00
42519;BME280;28147;47.520;18.920;2022-09-27T08:57:52;97025.53;;;14.79;100.00
42519;BME280;28147;47.520;18.920;2022-09-27T09:00:19;97028.75;;;15.09;100.00
42519;BME280;28147;47.520;18.920;2022-09-27T09:02:45;97022.28;;;14.82;100.00
42519;BME280;28147;47.520;18.920;2022-09-27T09:05:15;97021.78;;;14.94;100.00
42519;BME280;28147;47.520;18.920;2022-09-27T09:17:07;97008.78;;;15.15;100.00
42519;BME280;28147;47.520;18.920;2022-09-27T09:35:35;96996.38;;;14.92;100.00
42519;BME280;28147;47.520;18.920;2022-09-27T09:38:27;96996.00;;;14.98;100.00
42519;BME280;28147;47.520;18.920;2022-09-27T09:41:04;96985.72;;;14.59;100.00
42519;BME280;28147;47.520;18.920;2022-09-27T09:43:39;96989.91;;;14.46;100.00
42519;BME280;28147;47.520;18.920;2022-09-27T09:46:14;96981.97;;;14.74;100.00
42519;BME280;28147;47.520;18.920;2022-09-27T09:48:55;96977.69;;;14.59;100.00
42519;BME280;28147;47.520;18.920;2022-09-27T09:51:26;96973.81;;;14.32;100.00
42519;BME280;28147;47.520;18.920;2022-09-27T09:54:04;96978.25;;;14.56;100.00
42519;BME280;28147;47.520;18.920;2022-09-27T09:56:34;96983.09;;;14.54;100.00
42519;BME280;28147;47.520;18.920;2022-09-27T09:59:02;96972.00;;;14.60;100.00
42519;BME280;28147;47.520;18.920;2022-09-27T10:01:42;96969.78;;;14.81;100.00
42519;BME280;28147;47.520;18.920;2022-09-27T10:04:18;96977.16;;;14.57;100.00
42519;BME280;28147;47.520;18.920;2022-09-27T10:06:45;96965.72;;;14.19;100.00
42519;BME280;28147;47.520;18.920;2022-09-27T10:09:14;96972.66;;;14.20;100.00
42519;BME280;28147;47.520;18.920;2022-09-27T10:11:43;96960.63;;;14.36;100.00
42519;BME280;28147;47.520;18.920;2022-09-27T10:14:12;96965.44;;;14.53;100.00
42519;BME280;28147;47.520;18.920;2022-09-27T10:16:39;96964.69;;;14.33;100.00
42519;BME280;28147;47.520;18.920;2022-09-27T10:19:07;96958.22;;;14.53;100.00
42519;BME280;28147;47.520;18.920;2022-09-27T10:21:37;96965.91;;;14.74;100.00
42519;BME280;28147;47.520;18.920;2022-09-27T10:24:14;96955.66;;;14.76;100.00
42519;BME280;28147;47.520;18.920;2022-09-27T10:26:41;96950.63;;;14.74;100.00
42519;BME280;28147;47.520;18.920;2022-09-27T10:31:52;96954.81;;;14.48;100.00
42519;BME280;28147;47.520;18.920;2022-09-27T10:34:53;96950.66;;;14.23;100.00
42519;BME280;28147;47.520;18.920;2022-09-27T10:37:21;96951.44;;;14.23;100.00
42519;BME280;28147;47.520;18.920;2022-09-27T10:39:49;96947.03;;;14.32;100.00
42519;BME280;28147;47.520;18.920;2022-09-27T10:42:36;96942.50;;;14.47;100.00
42519;BME280;28147;47.520;18.920;2022-09-27T10:47:46;96953.72;;;14.49;100.00
42519;BME280;28147;47.520;18.920;2022-09-27T10:50:21;96945.59;;;14.54;100.00
42519;BME280;28147;47.520;18.920;2022-09-27T10:53:03;96944.44;;;14.60;100.00
42519;BME280;28147;47.520;18.920;2022-09-27T10:55:34;96939.66;;;14.57;100.00
42519;BME280;28147;47.520;18.920;2022-09-27T10:58:01;96930.94;;;14.65;100.00
42519;BME280;28147;47.520;18.920;2022-09-27T11:00:34;96936.06;;;14.48;100.00
42519;BME280;28147;47.520;18.920;2022-09-27T11:03:06;96933.03;;;14.68;100.00
42519;BME280;28147;47.520;18.920;2022-09-27T11:05:37;96922.03;;;14.70;100.00
42519;BME280;28147;47.520;18.920;2022-09-27T11:08:19;96924.59;;;14.61;100.00
42519;BME280;28147;47.520;18.920;2022-09-27T11:13:39;96917.97;;;15.00;100.00
42519;BME280;28147;47.520;18.920;2022-09-27T11:16:20;96917.97;;;15.00;100.00
42519;BME280;28147;47.520;18.920;2022-09-27T11:29:27;96896.53;;;15.27;100.00
42519;BME280;28147;47.520;18.920;2022-09-27T11:35:02;96893.25;;;15.30;100.00
42519;BME280;28147;47.520;18.920;2022-09-27T11:50:55;96871.47;;;15.46;100.00
42519;BME280;28147;47.520;18.920;2022-09-27T12:01:58;96855.13;;;15.56;100.00
42519;BME280;28147;47.520;18.920;2022-09-27T12:07:45;96838.28;;;15.64;100.00
42519;BME280;28147;47.520;18.920;2022-09-27T12:10:16;96834.81;;;15.64;100.00
42519;BME280;28147;47.520;18.920;2022-09-27T12:12:45;96837.94;;;15.57;100.00
42519;BME280;28147;47.520;18.920;2022-09-27T12:15:19;96835.38;;;15.52;100.00
42519;BME280;28147;47.520;18.920;2022-09-27T12:17:48;96838.00;;;15.43;100.00
42519;BME280;28147;47.520;18.920;2022-09-27T12:20:30;96846.97;;;15.61;100.00
42519;BME280;28147;47.520;18.920;2022-09-27T12:23:01;96835.59;;;15.64;100.00
42519;BME280;28147;47.520;18.920;2022-09-27T12:25:36;96830.78;;;15.66;100.00
42519;BME280;28147;47.520;18.920;2022-09-27T12:28:20;96834.16;;;15.58;100.00
42519;BME280;28147;47.520;18.920;2022-09-27T12:30:51;96829.91;;;15.57;100.00
42519;BME280;28147;47.520;18.920;2022-09-27T12:33:26;96834.03;;;15.63;100.00
42519;BME280;28147;47.520;18.920;2022-09-27T12:35:56;96831.47;;;15.58;100.00
42519;BME280;28147;47.520;18.920;2022-09-27T12:41:04;96829.34;;;15.46;100.00
42519;BME280;28147;47.520;18.920;2022-09-27T12:43:31;96821.25;;;15.82;100.00
42519;BME280;28147;47.520;18.920;2022-09-27T12:52:02;96805.94;;;16.37;100.00
42519;BME280;28147;47.520;18.920;2022-09-27T12:54:50;96797.63;;;16.56;100.00
42519;BME280;28147;47.520;18.920;2022-09-27T13:00:21;96796.94;;;16.50;100.00
42519;BME280;28147;47.520;18.920;2022-09-27T13:05:58;96800.97;;;16.21;100.00
42519;BME280;28147;47.520;18.920;2022-09-27T13:08:56;96796.03;;;16.15;100.00
42519;BME280;28147;47.520;18.920;2022-09-27T13:14:17;96798.84;;;16.49;100.00
42519;BME280;28147;47.520;18.920;2022-09-27T13:16:44;96784.81;;;16.61;100.00
42519;BME280;28147;47.520;18.920;2022-09-27T13:19:37;96787.72;;;16.73;100.00
42519;BME280;28147;47.520;18.920;2022-09-27T13:24:47;96797.28;;;16.57;100.00
42519;BME280;28147;47.520;18.920;2022-09-27T13:32:31;96789.31;;;16.74;100.00
42519;BME280;28147;47.520;18.920;2022-09-27T13:37:55;96786.00;;;16.77;100.00
42519;BME280;28147;47.520;18.920;2022-09-27T13:46:13;96784.03;;;16.21;100.00
42519;BME280;28147;47.520;18.920;2022-09-27T13:49:31;96791.19;;;16.25;100.00
42519;BME280;28147;47.520;18.920;2022-09-27T13:51:41;96812.25;;;16.41;100.00
42519;BME280;28147;47.520;18.920;2022-09-27T13:56:58;96836.97;;;15.75;92.83
42519;BME280;28147;47.520;18.920;2022-09-27T13:59:44;96839.03;;;15.56;92.61
42519;BME280;28147;47.520;18.920;2022-09-27T14:02:22;96828.66;;;15.41;98.27
42519;BME280;28147;47.520;18.920;2022-09-27T14:04:50;96818.88;;;15.22;99.20
42519;BME280;28147;47.520;18.920;2022-09-27T14:07:20;96821.31;;;15.32;100.00
42519;BME280;28147;47.520;18.920;2022-09-27T14:09:51;96809.06;;;15.18;100.00
42519;BME280;28147;47.520;18.920;2022-09-27T14:12:20;96812.66;;;15.13;100.00
42519;BME280;28147;47.520;18.920;2022-09-27T14:14:47;96829.31;;;15.10;100.00
42519;BME280;28147;47.520;18.920;2022-09-27T14:17:14;96834.81;;;14.91;100.00
42519;BME280;28147;47.520;18.920;2022-09-27T14:19:41;96825.66;;;15.06;100.00
42519;BME280;28147;47.520;18.920;2022-09-27T14:22:17;96822.44;;;14.81;100.00
42519;BME280;28147;47.520;18.920;2022-09-27T14:24:53;96821.34;;;14.82;100.00
42519;BME280;28147;47.520;18.920;2022-09-27T14:27:27;96815.47;;;14.80;100.00
42519;BME280;28147;47.520;18.920;2022-09-27T14:29:58;96827.66;;;14.45;100.00
42519;BME280;28147;47.520;18.920;2022-09-27T14:32:28;96829.19;;;14.65;100.00
42519;BME280;28147;47.520;18.920;2022-09-27T14:38:06;96840.59;;;14.71;100.00
42519;BME280;28147;47.520;18.920;2022-09-27T14:43:18;96837.03;;;14.75;100.00
42519;BME280;28147;47.520;18.920;2022-09-27T14:45:46;96824.91;;;14.64;100.00
42519;BME280;28147;47.520;18.920;2022-09-27T14:51:14;96830.16;;;14.83;100.00
42519;BME280;28147;47.520;18.920;2022-09-27T14:53:53;96855.34;;;14.96;100.00
42519;BME280;28147;47.520;18.920;2022-09-27T14:56:25;96860.44;;;14.83;100.00
42519;BME280;28147;47.520;18.920;2022-09-27T14:59:00;96855.47;;;14.63;100.00
42519;BME280;28147;47.520;18.920;2022-09-27T15:01:26;96860.84;;;14.63;100.00
42519;BME280;28147;47.520;18.920;2022-09-27T15:03:53;96868.19;;;14.85;99.32
42519;BME280;28147;47.520;18.920;2022-09-27T15:06:20;96867.06;;;14.72;100.00
42519;BME280;28147;47.520;18.920;2022-09-27T15:08:46;96880.06;;;14.65;100.00
42519;BME280;28147;47.520;18.920;2022-09-27T15:11:14;96871.25;;;14.51;97.80
42519;BME280;28147;47.520;18.920;2022-09-27T15:13:42;96869.31;;;14.38;97.72
42519;BME280;28147;47.520;18.920;2022-09-27T15:16:13;96872.97;;;14.42;98.74
42519;BME280;28147;47.520;18.920;2022-09-27T15:18:43;96872.25;;;14.22;96.35
42519;BME280;28147;47.520;18.920;2022-09-27T15:21:30;96862.50;;;13.99;95.01
42519;BME280;28147;47.520;18.920;2022-09-27T15:23:55;96870.97;;;13.87;95.38
42519;BME280;28147;47.520;18.920;2022-09-27T15:26:32;96875.09;;;13.79;97.83
42519;BME280;28147;47.520;18.920;2022-09-27T15:29:00;96878.94;;;13.73;98.03
42519;BME280;28147;47.520;18.920;2022-09-27T15:31:33;96882.53;;;13.63;98.61
42519;BME280;28147;47.520;18.920;2022-09-27T15:34:00;96877.81;;;13.60;99.32
42519;BME280;28147;47.520;18.920;2022-09-27T15:39:27;96874.59;;;13.58;97.22
42519;BME280;28147;47.520;18.920;2022-09-27T15:42:11;96882.97;;;13.52;97.35
42519;BME280;28147;47.520;18.920;2022-09-27T15:52:53;96880.41;;;13.47;99.94
42519;BME280;28147;47.520;18.920;2022-09-27T15:55:26;96891.44;;;13.59;97.78